sensor_id;sensor_type;location;lat;lon;timestamp;temperature;humidity
12006;DHT22;6062;47.294;12.182;2022-07-01T00:02:20;15.70;63.50
12006;DHT22;6062;47.294;12.182;2022-07-01T00:04:45;15.70;63.50
12006;DHT22;6062;47.294;12.182;2022-07-01T00:07:11;15.60;63.50
12006;DHT22;6062;47.294;12.182;2022-07-01T00:09:37;15.60;63.50
12006;DHT22;6062;47.294;12.182;2022-07-01T00:12:04;15.60;63.50
12006;DHT22;6062;47.294;12.182;2022-07-01T00:14:34;15.50;63.60
12006;DHT22;6062;47.294;12.182;2022-07-01T00:16:59;15.60;63.80
12006;DHT22;6062;47.294;12.182;2022-07-01T00:19:25;15.50;63.80
12006;DHT22;6062;47.294;12.182;2022-07-01T00:21:51;15.50;63.90
12006;DHT22;6062;47.294;12.182;2022-07-01T00:24:17;15.50;64.10
12006;DHT22;6062;47.294;12.182;2022-07-01T00:26:46;15.40;64.10
12006;DHT22;6062;47.294;12.182;2022-07-01T00:29:12;15.40;64.10
12006;DHT22;6062;47.294;12.182;2022-07-01T00:31:40;15.40;64.30
12006;DHT22;6062;47.294;12.182;2022-07-01T00:34:06;15.40;64.50
12006;DHT22;6062;47.294;12.182;2022-07-01T00:36:32;15.40;64.40
12006;DHT22;6062;47.294;12.182;2022-07-01T00:38:58;15.40;64.30
12006;DHT22;6062;47.294;12.182;2022-07-01T00:41:24;15.40;63.70
12006;DHT22;6062;47.294;12.182;2022-07-01T00:43:50;15.40;64.50
12006;DHT22;6062;47.294;12.182;2022-07-01T00:46:16;15.50;64.50
12006;DHT22;6062;47.294;12.182;2022-07-01T00:48:43;15.40;64.50
12006;DHT22;6062;47.294;12.182;2022-07-01T00:51:10;15.40;64.60
12006;DHT22;6062;47.294;12.182;2022-07-01T00:53:36;15.40;64.60
12006;DHT22;6062;47.294;12.182;2022-07-01T00:56:02;15.40;64.70
12006;DHT22;6062;47.294;12.182;2022-07-01T00:58:29;15.40;64.90
12006;DHT22;6062;47.294;12.182;2022-07-01T01:00:57;15.40;65.00
12006;DHT22;6062;47.294;12.182;2022-07-01T01:03:26;15.40;65.10
12006;DHT22;6062;47.294;12.182;2022-07-01T01:05:53;15.40;65.20
12006;DHT22;6062;47.294;12.182;2022-07-01T01:08:23;15.50;65.30
12006;DHT22;6062;47.294;12.182;2022-07-01T01:10:51;15.50;65.20
12006;DHT22;6062;47.294;12.182;2022-07-01T01:13:18;15.50;65.30
12006;DHT22;6062;47.294;12.182;2022-07-01T01:15:44;15.50;65.20
12006;DHT22;6062;47.294;12.182;2022-07-01T01:18:10;15.50;65.90
12006;DHT22;6062;47.294;12.182;2022-07-01T01:20:36;15.50;65.30
12006;DHT22;6062;47.294;12.182;2022-07-01T01:23:03;15.60;65.30
12006;DHT22;6062;47.294;12.182;2022-07-01T01:25:31;15.60;65.30
12006;DHT22;6062;47.294;12.182;2022-07-01T01:27:57;15.60;65.20
12006;DHT22;6062;47.294;12.182;2022-07-01T01:30:23;15.60;65.00
12006;DHT22;6062;47.294;12.182;2022-07-01T01:32:49;15.60;64.90
12006;DHT22;6062;47.294;12.182;2022-07-01T01:35:15;15.60;64.80
12006;DHT22;6062;47.294;12.182;2022-07-01T01:37:41;15.60;64.60
12006;DHT22;6062;47.294;12.182;2022-07-01T01:40:08;15.60;64.60
12006;DHT22;6062;47.294;12.182;2022-07-01T01:42:34;15.60;64.50
12006;DHT22;6062;47.294;12.182;2022-07-01T01:45:01;15.60;64.50
12006;DHT22;6062;47.294;12.182;2022-07-01T01:47:28;15.50;64.40
12006;DHT22;6062;47.294;12.182;2022-07-01T01:49:53;15.60;64.30
12006;DHT22;6062;47.294;12.182;2022-07-01T01:52:19;15.50;64.30
12006;DHT22;6062;47.294;12.182;2022-07-01T01:54:45;15.50;64.20
12006;DHT22;6062;47.294;12.182;2022-07-01T01:57:10;15.40;64.10
12006;DHT22;6062;47.294;12.182;2022-07-01T01:59:36;15.30;64.10
12006;DHT22;6062;47.294;12.182;2022-07-01T02:02:02;15.20;64.20
12006;DHT22;6062;47.294;12.182;2022-07-01T02:04:28;15.10;64.40
12006;DHT22;6062;47.294;12.182;2022-07-01T02:06:54;15.00;64.50
12006;DHT22;6062;47.294;12.182;2022-07-01T02:09:19;14.90;64.70
12006;DHT22;6062;47.294;12.182;2022-07-01T02:11:45;14.80;64.80
12006;DHT22;6062;47.294;12.182;2022-07-01T02:14:11;14.80;64.90
12006;DHT22;6062;47.294;12.182;2022-07-01T02:16:36;14.70;64.80
12006;DHT22;6062;47.294;12.182;2022-07-01T02:19:02;14.60;65.00
12006;DHT22;6062;47.294;12.182;2022-07-01T02:21:29;14.50;65.00
12006;DHT22;6062;47.294;12.182;2022-07-01T02:23:54;14.40;65.40
12006;DHT22;6062;47.294;12.182;2022-07-01T02:26:20;14.40;65.50
12006;DHT22;6062;47.294;12.182;2022-07-01T02:28:46;14.30;65.70
12006;DHT22;6062;47.294;12.182;2022-07-01T02:31:12;14.20;66.30
12006;DHT22;6062;47.294;12.182;2022-07-01T02:33:38;14.10;66.70
12006;DHT22;6062;47.294;12.182;2022-07-01T02:36:04;14.00;67.10
12006;DHT22;6062;47.294;12.182;2022-07-01T02:38:29;13.90;67.30
12006;DHT22;6062;47.294;12.182;2022-07-01T02:40:55;13.80;67.60
12006;DHT22;6062;47.294;12.182;2022-07-01T02:43:21;13.70;68.00
12006;DHT22;6062;47.294;12.182;2022-07-01T02:45:46;13.60;68.10
12006;DHT22;6062;47.294;12.182;2022-07-01T02:48:12;13.50;68.40
12006;DHT22;6062;47.294;12.182;2022-07-01T02:50:38;13.50;68.70
12006;DHT22;6062;47.294;12.182;2022-07-01T02:53:04;13.30;69.00
12006;DHT22;6062;47.294;12.182;2022-07-01T02:55:29;13.20;69.30
12006;DHT22;6062;47.294;12.182;2022-07-01T02:57:55;13.20;69.70
12006;DHT22;6062;47.294;12.182;2022-07-01T03:00:21;13.10;70.00
12006;DHT22;6062;47.294;12.182;2022-07-01T03:02:48;13.10;70.20
12006;DHT22;6062;47.294;12.182;2022-07-01T03:05:14;13.10;70.50
12006;DHT22;6062;47.294;12.182;2022-07-01T03:07:40;13.10;70.70
12006;DHT22;6062;47.294;12.182;2022-07-01T03:10:07;13.10;71.00
12006;DHT22;6062;47.294;12.182;2022-07-01T03:12:33;13.10;72.00
12006;DHT22;6062;47.294;12.182;2022-07-01T03:15:14;13.00;71.50
12006;DHT22;6062;47.294;12.182;2022-07-01T03:17:43;13.10;71.90
12006;DHT22;6062;47.294;12.182;2022-07-01T03:20:13;13.10;72.20
12006;DHT22;6062;47.294;12.182;2022-07-01T03:22:41;13.10;72.60
12006;DHT22;6062;47.294;12.182;2022-07-01T03:25:09;13.10;72.80
12006;DHT22;6062;47.294;12.182;2022-07-01T03:27:35;13.10;73.10
12006;DHT22;6062;47.294;12.182;2022-07-01T03:30:04;13.10;73.60
12006;DHT22;6062;47.294;12.182;2022-07-01T03:32:31;13.20;74.30
12006;DHT22;6062;47.294;12.182;2022-07-01T03:34:57;13.20;74.70
12006;DHT22;6062;47.294;12.182;2022-07-01T03:37:23;13.20;74.60
12006;DHT22;6062;47.294;12.182;2022-07-01T03:39:50;13.30;74.70
12006;DHT22;6062;47.294;12.182;2022-07-01T03:42:16;13.40;74.70
12006;DHT22;6062;47.294;12.182;2022-07-01T03:44:43;13.40;75.00
12006;DHT22;6062;47.294;12.182;2022-07-01T03:47:10;13.50;75.30
12006;DHT22;6062;47.294;12.182;2022-07-01T03:49:36;13.50;75.50
12006;DHT22;6062;47.294;12.182;2022-07-01T03:52:05;13.60;75.60
12006;DHT22;6062;47.294;12.182;2022-07-01T03:54:31;13.60;75.90
12006;DHT22;6062;47.294;12.182;2022-07-01T03:57:08;13.70;75.60
12006;DHT22;6062;47.294;12.182;2022-07-01T03:59:37;13.80;76.30
12006;DHT22;6062;47.294;12.182;2022-07-01T04:02:05;13.80;76.10
12006;DHT22;6062;47.294;12.182;2022-07-01T04:04:32;13.90;76.20
12006;DHT22;6062;47.294;12.182;2022-07-01T04:07:00;13.90;76.10
12006;DHT22;6062;47.294;12.182;2022-07-01T04:09:28;14.00;76.30
12006;DHT22;6062;47.294;12.182;2022-07-01T04:11:55;14.10;76.20
12006;DHT22;6062;47.294;12.182;2022-07-01T04:14:22;14.10;75.80
12006;DHT22;6062;47.294;12.182;2022-07-01T04:16:50;14.10;75.70
12006;DHT22;6062;47.294;12.182;2022-07-01T04:19:16;14.20;75.80
12006;DHT22;6062;47.294;12.182;2022-07-01T04:21:43;14.20;75.80
12006;DHT22;6062;47.294;12.182;2022-07-01T04:24:28;14.20;75.90
12006;DHT22;6062;47.294;12.182;2022-07-01T04:26:54;14.20;75.90
12006;DHT22;6062;47.294;12.182;2022-07-01T04:29:20;14.30;76.00
12006;DHT22;6062;47.294;12.182;2022-07-01T04:31:46;14.30;75.90
12006;DHT22;6062;47.294;12.182;2022-07-01T04:34:13;14.30;75.60
12006;DHT22;6062;47.294;12.182;2022-07-01T04:36:39;14.30;75.20
12006;DHT22;6062;47.294;12.182;2022-07-01T04:39:05;14.30;75.20
12006;DHT22;6062;47.294;12.182;2022-07-01T04:41:32;14.20;75.10
12006;DHT22;6062;47.294;12.182;2022-07-01T04:44:18;14.10;75.20
12006;DHT22;6062;47.294;12.182;2022-07-01T04:46:44;14.00;75.60
12006;DHT22;6062;47.294;12.182;2022-07-01T04:49:10;14.00;76.10
12006;DHT22;6062;47.294;12.182;2022-07-01T04:51:36;13.90;76.70
12006;DHT22;6062;47.294;12.182;2022-07-01T04:54:05;13.90;76.80
12006;DHT22;6062;47.294;12.182;2022-07-01T04:56:32;13.80;77.30
12006;DHT22;6062;47.294;12.182;2022-07-01T04:58:59;13.80;77.40
12006;DHT22;6062;47.294;12.182;2022-07-01T05:01:26;13.70;78.10
12006;DHT22;6062;47.294;12.182;2022-07-01T05:03:53;13.70;77.70
12006;DHT22;6062;47.294;12.182;2022-07-01T05:06:19;13.60;78.00
12006;DHT22;6062;47.294;12.182;2022-07-01T05:08:44;13.60;78.50
12006;DHT22;6062;47.294;12.182;2022-07-01T05:11:10;13.50;78.70
12006;DHT22;6062;47.294;12.182;2022-07-01T05:13:36;13.50;79.20
12006;DHT22;6062;47.294;12.182;2022-07-01T05:16:02;13.40;79.50
12006;DHT22;6062;47.294;12.182;2022-07-01T05:18:29;13.40;80.00
12006;DHT22;6062;47.294;12.182;2022-07-01T05:21:13;13.30;80.40
12006;DHT22;6062;47.294;12.182;2022-07-01T05:23:58;13.30;80.50
12006;DHT22;6062;47.294;12.182;2022-07-01T05:26:24;13.20;80.70
12006;DHT22;6062;47.294;12.182;2022-07-01T05:28:52;13.20;81.20
12006;DHT22;6062;47.294;12.182;2022-07-01T05:31:18;13.20;82.10
12006;DHT22;6062;47.294;12.182;2022-07-01T05:33:44;13.30;82.70
12006;DHT22;6062;47.294;12.182;2022-07-01T05:36:10;13.30;83.30
12006;DHT22;6062;47.294;12.182;2022-07-01T05:38:37;13.40;83.30
12006;DHT22;6062;47.294;12.182;2022-07-01T05:41:03;13.50;83.40
12006;DHT22;6062;47.294;12.182;2022-07-01T05:43:28;13.60;82.90
12006;DHT22;6062;47.294;12.182;2022-07-01T05:45:55;13.80;82.80
12006;DHT22;6062;47.294;12.182;2022-07-01T05:48:21;13.90;83.20
12006;DHT22;6062;47.294;12.182;2022-07-01T05:50:48;14.00;82.60
12006;DHT22;6062;47.294;12.182;2022-07-01T05:53:15;14.10;82.40
12006;DHT22;6062;47.294;12.182;2022-07-01T05:55:41;14.30;81.60
12006;DHT22;6062;47.294;12.182;2022-07-01T05:58:07;14.50;81.70
12006;DHT22;6062;47.294;12.182;2022-07-01T06:00:35;14.60;80.50
12006;DHT22;6062;47.294;12.182;2022-07-01T06:03:01;14.70;80.40
12006;DHT22;6062;47.294;12.182;2022-07-01T06:05:27;14.90;79.70
12006;DHT22;6062;47.294;12.182;2022-07-01T06:07:52;15.00;78.80
12006;DHT22;6062;47.294;12.182;2022-07-01T06:10:18;15.10;78.40
12006;DHT22;6062;47.294;12.182;2022-07-01T06:12:44;15.30;77.30
12006;DHT22;6062;47.294;12.182;2022-07-01T06:15:11;15.40;76.70
12006;DHT22;6062;47.294;12.182;2022-07-01T06:17:39;15.40;76.20
12006;DHT22;6062;47.294;12.182;2022-07-01T06:20:06;15.40;76.10
12006;DHT22;6062;47.294;12.182;2022-07-01T06:22:33;15.50;75.40
12006;DHT22;6062;47.294;12.182;2022-07-01T06:25:00;15.50;76.00
12006;DHT22;6062;47.294;12.182;2022-07-01T06:27:26;15.50;77.30
12006;DHT22;6062;47.294;12.182;2022-07-01T06:29:52;15.60;78.20
12006;DHT22;6062;47.294;12.182;2022-07-01T06:32:18;15.80;79.10
12006;DHT22;6062;47.294;12.182;2022-07-01T06:34:44;15.90;78.50
12006;DHT22;6062;47.294;12.182;2022-07-01T06:37:10;16.10;77.40
12006;DHT22;6062;47.294;12.182;2022-07-01T06:39:36;16.40;76.10
12006;DHT22;6062;47.294;12.182;2022-07-01T06:42:02;16.50;74.50
12006;DHT22;6062;47.294;12.182;2022-07-01T06:44:28;16.60;73.80
12006;DHT22;6062;47.294;12.182;2022-07-01T06:46:54;16.70;73.20
12006;DHT22;6062;47.294;12.182;2022-07-01T06:49:19;16.80;72.80
12006;DHT22;6062;47.294;12.182;2022-07-01T06:51:45;16.80;72.50
12006;DHT22;6062;47.294;12.182;2022-07-01T06:54:11;16.80;72.50
12006;DHT22;6062;47.294;12.182;2022-07-01T06:56:37;16.90;73.10
12006;DHT22;6062;47.294;12.182;2022-07-01T06:59:03;17.00;73.50
12006;DHT22;6062;47.294;12.182;2022-07-01T07:01:29;17.10;73.30
12006;DHT22;6062;47.294;12.182;2022-07-01T07:03:54;17.30;72.80
12006;DHT22;6062;47.294;12.182;2022-07-01T07:06:20;17.40;72.70
12006;DHT22;6062;47.294;12.182;2022-07-01T07:08:46;17.50;71.70
12006;DHT22;6062;47.294;12.182;2022-07-01T07:11:13;17.60;71.10
12006;DHT22;6062;47.294;12.182;2022-07-01T07:13:40;17.80;70.90
12006;DHT22;6062;47.294;12.182;2022-07-01T07:16:07;17.80;70.20
12006;DHT22;6062;47.294;12.182;2022-07-01T07:18:34;17.90;70.20
12006;DHT22;6062;47.294;12.182;2022-07-01T07:21:00;17.90;69.80
12006;DHT22;6062;47.294;12.182;2022-07-01T07:23:26;17.90;70.00
12006;DHT22;6062;47.294;12.182;2022-07-01T07:25:51;18.00;70.00
12006;DHT22;6062;47.294;12.182;2022-07-01T07:28:17;18.00;69.70
12006;DHT22;6062;47.294;12.182;2022-07-01T07:30:43;18.00;69.60
12006;DHT22;6062;47.294;12.182;2022-07-01T07:33:08;18.00;69.60
12006;DHT22;6062;47.294;12.182;2022-07-01T07:35:34;18.10;70.00
12006;DHT22;6062;47.294;12.182;2022-07-01T07:38:00;18.20;69.70
12006;DHT22;6062;47.294;12.182;2022-07-01T07:40:25;18.30;70.20
12006;DHT22;6062;47.294;12.182;2022-07-01T07:42:51;18.40;70.00
12006;DHT22;6062;47.294;12.182;2022-07-01T07:45:17;18.50;69.20
12006;DHT22;6062;47.294;12.182;2022-07-01T07:47:45;18.60;69.80
12006;DHT22;6062;47.294;12.182;2022-07-01T07:50:12;18.70;68.50
12006;DHT22;6062;47.294;12.182;2022-07-01T07:52:39;18.90;67.90
12006;DHT22;6062;47.294;12.182;2022-07-01T07:55:07;18.90;67.50
12006;DHT22;6062;47.294;12.182;2022-07-01T07:57:39;18.90;67.20
12006;DHT22;6062;47.294;12.182;2022-07-01T08:00:08;19.00;67.00
12006;DHT22;6062;47.294;12.182;2022-07-01T08:02:36;19.00;66.40
12006;DHT22;6062;47.294;12.182;2022-07-01T08:05:02;19.00;67.10
12006;DHT22;6062;47.294;12.182;2022-07-01T08:07:28;19.00;67.30
12006;DHT22;6062;47.294;12.182;2022-07-01T08:09:54;19.10;67.30
12006;DHT22;6062;47.294;12.182;2022-07-01T08:12:20;19.10;67.20
12006;DHT22;6062;47.294;12.182;2022-07-01T08:14:47;19.20;66.60
12006;DHT22;6062;47.294;12.182;2022-07-01T08:17:13;19.30;66.60
12006;DHT22;6062;47.294;12.182;2022-07-01T08:19:39;19.40;66.50
12006;DHT22;6062;47.294;12.182;2022-07-01T08:22:05;19.40;65.60
12006;DHT22;6062;47.294;12.182;2022-07-01T08:24:31;19.40;65.20
12006;DHT22;6062;47.294;12.182;2022-07-01T08:26:57;19.40;65.60
12006;DHT22;6062;47.294;12.182;2022-07-01T08:29:23;19.40;66.80
12006;DHT22;6062;47.294;12.182;2022-07-01T08:31:48;19.50;66.50
12006;DHT22;6062;47.294;12.182;2022-07-01T08:34:14;19.50;65.20
12006;DHT22;6062;47.294;12.182;2022-07-01T08:36:40;19.50;64.90
12006;DHT22;6062;47.294;12.182;2022-07-01T08:39:06;19.30;65.10
12006;DHT22;6062;47.294;12.182;2022-07-01T08:41:32;19.30;65.40
12006;DHT22;6062;47.294;12.182;2022-07-01T08:43:58;19.20;65.40
12006;DHT22;6062;47.294;12.182;2022-07-01T08:46:26;19.10;65.70
12006;DHT22;6062;47.294;12.182;2022-07-01T08:48:52;19.00;66.90
12006;DHT22;6062;47.294;12.182;2022-07-01T08:51:18;19.00;67.10
12006;DHT22;6062;47.294;12.182;2022-07-01T08:53:44;18.90;67.40
12006;DHT22;6062;47.294;12.182;2022-07-01T08:56:09;19.00;67.00
12006;DHT22;6062;47.294;12.182;2022-07-01T08:58:54;19.10;66.40
12006;DHT22;6062;47.294;12.182;2022-07-01T09:01:22;19.10;66.30
12006;DHT22;6062;47.294;12.182;2022-07-01T09:03:53;19.10;65.90
12006;DHT22;6062;47.294;12.182;2022-07-01T09:06:26;19.10;65.30
12006;DHT22;6062;47.294;12.182;2022-07-01T09:08:53;19.10;64.90
12006;DHT22;6062;47.294;12.182;2022-07-01T09:11:24;18.90;64.40
12006;DHT22;6062;47.294;12.182;2022-07-01T09:14:14;18.80;65.00
12006;DHT22;6062;47.294;12.182;2022-07-01T09:16:41;18.60;65.30
12006;DHT22;6062;47.294;12.182;2022-07-01T09:19:10;18.40;65.70
12006;DHT22;6062;47.294;12.182;2022-07-01T09:21:37;18.30;65.70
12006;DHT22;6062;47.294;12.182;2022-07-01T09:24:05;18.20;66.00
12006;DHT22;6062;47.294;12.182;2022-07-01T09:26:57;18.10;65.80
12006;DHT22;6062;47.294;12.182;2022-07-01T09:29:32;18.00;65.40
12006;DHT22;6062;47.294;12.182;2022-07-01T09:32:02;17.80;65.70
12006;DHT22;6062;47.294;12.182;2022-07-01T09:34:41;17.50;66.10
12006;DHT22;6062;47.294;12.182;2022-07-01T09:37:15;17.30;66.80
12006;DHT22;6062;47.294;12.182;2022-07-01T09:39:46;17.00;67.70
12006;DHT22;6062;47.294;12.182;2022-07-01T09:42:14;16.80;68.50
12006;DHT22;6062;47.294;12.182;2022-07-01T09:45:04;16.60;68.90
12006;DHT22;6062;47.294;12.182;2022-07-01T09:47:39;16.40;69.70
12006;DHT22;6062;47.294;12.182;2022-07-01T09:50:09;16.20;70.90
12006;DHT22;6062;47.294;12.182;2022-07-01T09:52:36;16.10;71.80
12006;DHT22;6062;47.294;12.182;2022-07-01T09:55:04;16.00;72.20
12006;DHT22;6062;47.294;12.182;2022-07-01T09:57:31;16.00;72.70
12006;DHT22;6062;47.294;12.182;2022-07-01T09:59:57;15.90;72.50
12006;DHT22;6062;47.294;12.182;2022-07-01T10:02:23;15.90;72.50
12006;DHT22;6062;47.294;12.182;2022-07-01T10:05:00;15.90;72.50
12006;DHT22;6062;47.294;12.182;2022-07-01T10:10:41;15.70;73.20
12006;DHT22;6062;47.294;12.182;2022-07-01T10:13:18;15.70;73.50
12006;DHT22;6062;47.294;12.182;2022-07-01T10:15:49;15.60;73.60
12006;DHT22;6062;47.294;12.182;2022-07-01T10:18:20;15.50;74.60
12006;DHT22;6062;47.294;12.182;2022-07-01T10:20:48;15.50;74.60
12006;DHT22;6062;47.294;12.182;2022-07-01T10:23:14;15.40;74.30
12006;DHT22;6062;47.294;12.182;2022-07-01T10:25:45;15.40;74.70
12006;DHT22;6062;47.294;12.182;2022-07-01T10:30:54;15.40;74.70
12006;DHT22;6062;47.294;12.182;2022-07-01T10:33:41;15.40;74.90
12006;DHT22;6062;47.294;12.182;2022-07-01T10:36:15;15.40;74.80
12006;DHT22;6062;47.294;12.182;2022-07-01T10:41:34;15.50;74.80
12006;DHT22;6062;47.294;12.182;2022-07-01T10:44:19;15.50;74.80
12006;DHT22;6062;47.294;12.182;2022-07-01T10:49:17;15.60;75.90
12006;DHT22;6062;47.294;12.182;2022-07-01T10:52:07;15.60;75.20
12006;DHT22;6062;47.294;12.182;2022-07-01T10:59:47;15.70;75.00
12006;DHT22;6062;47.294;12.182;2022-07-01T11:02:34;15.80;75.80
12006;DHT22;6062;47.294;12.182;2022-07-01T11:05:11;15.90;75.30
12006;DHT22;6062;47.294;12.182;2022-07-01T11:07:41;15.90;74.00
12006;DHT22;6062;47.294;12.182;2022-07-01T11:10:11;16.00;74.00
12006;DHT22;6062;47.294;12.182;2022-07-01T11:12:40;16.00;74.90
12006;DHT22;6062;47.294;12.182;2022-07-01T11:15:06;16.00;75.00
12006;DHT22;6062;47.294;12.182;2022-07-01T11:17:35;16.10;74.80
12006;DHT22;6062;47.294;12.182;2022-07-01T11:20:01;16.10;74.00
12006;DHT22;6062;47.294;12.182;2022-07-01T11:22:34;16.20;73.40
12006;DHT22;6062;47.294;12.182;2022-07-01T11:25:05;16.20;72.90
12006;DHT22;6062;47.294;12.182;2022-07-01T11:27:34;16.10;72.90
12006;DHT22;6062;47.294;12.182;2022-07-01T11:30:07;16.10;73.10
12006;DHT22;6062;47.294;12.182;2022-07-01T11:32:39;16.10;73.20
12006;DHT22;6062;47.294;12.182;2022-07-01T11:35:13;16.00;74.10
12006;DHT22;6062;47.294;12.182;2022-07-01T11:38:20;15.90;74.20
12006;DHT22;6062;47.294;12.182;2022-07-01T11:41:10;15.90;73.90
12006;DHT22;6062;47.294;12.182;2022-07-01T11:43:44;15.80;72.90
12006;DHT22;6062;47.294;12.182;2022-07-01T11:46:09;15.60;72.60
12006;DHT22;6062;47.294;12.182;2022-07-01T11:48:42;15.50;72.70
12006;DHT22;6062;47.294;12.182;2022-07-01T11:51:14;15.30;73.20
12006;DHT22;6062;47.294;12.182;2022-07-01T11:53:47;15.20;73.70
12006;DHT22;6062;47.294;12.182;2022-07-01T11:56:33;15.00;73.80
12006;DHT22;6062;47.294;12.182;2022-07-01T11:59:04;14.90;74.20
12006;DHT22;6062;47.294;12.182;2022-07-01T12:01:32;14.70;74.70
12006;DHT22;6062;47.294;12.182;2022-07-01T12:04:04;14.70;74.80
12006;DHT22;6062;47.294;12.182;2022-07-01T12:06:32;14.60;74.80
12006;DHT22;6062;47.294;12.182;2022-07-01T12:09:00;14.60;74.90
12006;DHT22;6062;47.294;12.182;2022-07-01T12:11:28;14.50;74.00
12006;DHT22;6062;47.294;12.182;2022-07-01T12:13:55;14.50;73.40
12006;DHT22;6062;47.294;12.182;2022-07-01T12:16:22;14.40;73.00
12006;DHT22;6062;47.294;12.182;2022-07-01T12:18:53;14.40;72.80
12006;DHT22;6062;47.294;12.182;2022-07-01T12:21:20;14.30;73.00
12006;DHT22;6062;47.294;12.182;2022-07-01T12:24:10;14.30;72.70
12006;DHT22;6062;47.294;12.182;2022-07-01T12:29:26;14.10;72.60
12006;DHT22;6062;47.294;12.182;2022-07-01T12:31:59;14.10;72.70
12006;DHT22;6062;47.294;12.182;2022-07-01T12:35:00;14.00;73.20
12006;DHT22;6062;47.294;12.182;2022-07-01T12:42:36;14.10;73.40
12006;DHT22;6062;47.294;12.182;2022-07-01T12:45:14;14.10;73.10
12006;DHT22;6062;47.294;12.182;2022-07-01T12:47:53;14.10;72.40
12006;DHT22;6062;47.294;12.182;2022-07-01T12:50:28;14.00;72.20
12006;DHT22;6062;47.294;12.182;2022-07-01T12:53:12;14.00;71.60
12006;DHT22;6062;47.294;12.182;2022-07-01T12:55:46;13.80;71.10
12006;DHT22;6062;47.294;12.182;2022-07-01T12:58:18;13.60;70.70
12006;DHT22;6062;47.294;12.182;2022-07-01T13:00:49;13.50;71.50
12006;DHT22;6062;47.294;12.182;2022-07-01T13:03:25;13.30;71.80
12006;DHT22;6062;47.294;12.182;2022-07-01T13:05:53;13.10;72.20
12006;DHT22;6062;47.294;12.182;2022-07-01T13:08:21;13.00;72.50
12006;DHT22;6062;47.294;12.182;2022-07-01T13:10:47;12.90;72.80
12006;DHT22;6062;47.294;12.182;2022-07-01T13:13:14;12.80;73.20
12006;DHT22;6062;47.294;12.182;2022-07-01T13:15:43;12.70;73.50
12006;DHT22;6062;47.294;12.182;2022-07-01T13:18:10;12.60;73.70
12006;DHT22;6062;47.294;12.182;2022-07-01T13:20:36;12.60;73.90
12006;DHT22;6062;47.294;12.182;2022-07-01T13:23:03;12.60;74.10
12006;DHT22;6062;47.294;12.182;2022-07-01T13:25:30;12.50;74.00
12006;DHT22;6062;47.294;12.182;2022-07-01T13:27:57;12.50;73.90
12006;DHT22;6062;47.294;12.182;2022-07-01T13:30:23;12.50;74.20
12006;DHT22;6062;47.294;12.182;2022-07-01T13:32:49;12.50;74.40
12006;DHT22;6062;47.294;12.182;2022-07-01T13:35:18;12.50;74.60
12006;DHT22;6062;47.294;12.182;2022-07-01T13:37:43;12.50;75.00
12006;DHT22;6062;47.294;12.182;2022-07-01T13:40:09;12.60;75.00
12006;DHT22;6062;47.294;12.182;2022-07-01T13:42:36;12.60;75.20
12006;DHT22;6062;47.294;12.182;2022-07-01T13:45:02;12.70;74.80
12006;DHT22;6062;47.294;12.182;2022-07-01T13:47:29;12.80;74.20
12006;DHT22;6062;47.294;12.182;2022-07-01T13:49:55;12.80;73.60
12006;DHT22;6062;47.294;12.182;2022-07-01T13:52:21;12.90;73.00
12006;DHT22;6062;47.294;12.182;2022-07-01T13:54:47;12.90;72.70
12006;DHT22;6062;47.294;12.182;2022-07-01T13:57:12;12.90;72.50
12006;DHT22;6062;47.294;12.182;2022-07-01T13:59:38;12.90;72.30
12006;DHT22;6062;47.294;12.182;2022-07-01T14:02:04;12.90;71.80
12006;DHT22;6062;47.294;12.182;2022-07-01T14:04:31;12.90;71.60
12006;DHT22;6062;47.294;12.182;2022-07-01T14:06:57;12.80;71.80
12006;DHT22;6062;47.294;12.182;2022-07-01T14:09:23;12.80;71.40
12006;DHT22;6062;47.294;12.182;2022-07-01T14:11:48;12.80;71.30
12006;DHT22;6062;47.294;12.182;2022-07-01T14:14:14;12.70;71.00
12006;DHT22;6062;47.294;12.182;2022-07-01T14:16:40;12.70;71.20
12006;DHT22;6062;47.294;12.182;2022-07-01T14:19:05;12.70;71.40
12006;DHT22;6062;47.294;12.182;2022-07-01T14:21:31;12.60;71.40
12006;DHT22;6062;47.294;12.182;2022-07-01T14:23:57;12.60;71.10
12006;DHT22;6062;47.294;12.182;2022-07-01T14:26:23;12.50;70.90
12006;DHT22;6062;47.294;12.182;2022-07-01T14:28:49;12.50;71.00
12006;DHT22;6062;47.294;12.182;2022-07-01T14:31:15;12.40;71.00
12006;DHT22;6062;47.294;12.182;2022-07-01T14:33:40;12.30;70.80
12006;DHT22;6062;47.294;12.182;2022-07-01T14:36:07;12.20;70.80
12006;DHT22;6062;47.294;12.182;2022-07-01T14:38:33;12.20;71.00
12006;DHT22;6062;47.294;12.182;2022-07-01T14:40:59;12.10;71.20
12006;DHT22;6062;47.294;12.182;2022-07-01T14:43:24;12.00;71.00
12006;DHT22;6062;47.294;12.182;2022-07-01T14:45:50;11.90;70.70
12006;DHT22;6062;47.294;12.182;2022-07-01T14:48:16;11.80;70.60
12006;DHT22;6062;47.294;12.182;2022-07-01T14:50:41;11.80;70.90
12006;DHT22;6062;47.294;12.182;2022-07-01T14:53:08;11.70;71.20
12006;DHT22;6062;47.294;12.182;2022-07-01T14:55:34;11.70;71.50
12006;DHT22;6062;47.294;12.182;2022-07-01T14:58:00;11.60;71.60
12006;DHT22;6062;47.294;12.182;2022-07-01T15:00:26;11.60;71.70
12006;DHT22;6062;47.294;12.182;2022-07-01T15:02:52;11.60;71.70
12006;DHT22;6062;47.294;12.182;2022-07-01T15:05:21;11.60;71.70
12006;DHT22;6062;47.294;12.182;2022-07-01T15:07:49;11.60;71.50
12006;DHT22;6062;47.294;12.182;2022-07-01T15:10:15;11.60;72.10
12006;DHT22;6062;47.294;12.182;2022-07-01T15:12:41;11.60;71.10
12006;DHT22;6062;47.294;12.182;2022-07-01T15:15:07;11.70;71.00
12006;DHT22;6062;47.294;12.182;2022-07-01T15:17:41;11.60;70.70
12006;DHT22;6062;47.294;12.182;2022-07-01T15:20:12;11.60;70.60
12006;DHT22;6062;47.294;12.182;2022-07-01T15:22:40;11.60;70.70
12006;DHT22;6062;47.294;12.182;2022-07-01T15:25:07;11.50;70.90
12006;DHT22;6062;47.294;12.182;2022-07-01T15:27:33;11.50;71.30
12006;DHT22;6062;47.294;12.182;2022-07-01T15:30:00;11.50;71.40
12006;DHT22;6062;47.294;12.182;2022-07-01T15:32:26;11.50;72.30
12006;DHT22;6062;47.294;12.182;2022-07-01T15:34:51;11.60;71.60
12006;DHT22;6062;47.294;12.182;2022-07-01T15:37:17;11.60;71.60
12006;DHT22;6062;47.294;12.182;2022-07-01T15:39:43;11.60;71.80
12006;DHT22;6062;47.294;12.182;2022-07-01T15:42:09;11.70;71.60
12006;DHT22;6062;47.294;12.182;2022-07-01T15:44:34;11.70;71.00
12006;DHT22;6062;47.294;12.182;2022-07-01T15:47:00;11.80;70.50
12006;DHT22;6062;47.294;12.182;2022-07-01T15:49:46;11.80;70.50
12006;DHT22;6062;47.294;12.182;2022-07-01T15:52:12;11.80;70.80
12006;DHT22;6062;47.294;12.182;2022-07-01T15:54:38;11.80;71.10
12006;DHT22;6062;47.294;12.182;2022-07-01T15:57:03;11.70;71.50
12006;DHT22;6062;47.294;12.182;2022-07-01T15:59:29;11.80;71.40
12006;DHT22;6062;47.294;12.182;2022-07-01T16:01:55;11.80;71.00